createdAt,value
2017-06-10T00:01:11.029Z,88.70
2017-06-10T00:03:47.593Z,85.10
2017-06-10T00:06:22.181Z,87.10
2017-06-10T00:08:56.083Z,87.10
2017-06-10T00:11:29.895Z,88.60
2017-06-10T00:14:03.524Z,84.60
2017-06-10T00:16:37.248Z,86.30
2017-06-10T00:19:11.184Z,86.60
2017-06-10T00:21:45.708Z,84.00
2017-06-10T00:24:19.333Z,87.00
2017-06-10T00:26:53.037Z,84.60
2017-06-10T00:29:27.592Z,83.70
2017-06-10T00:32:02.088Z,85.00
2017-06-10T00:34:38.079Z,84.80
2017-06-10T00:37:11.651Z,84.20
2017-06-10T00:39:46.109Z,87.40
2017-06-10T00:42:20.010Z,87.50
2017-06-10T00:44:54.505Z,85.00
2017-06-10T00:47:29.012Z,86.60
2017-06-10T00:50:03.780Z,85.80
2017-06-10T00:52:38.364Z,86.80
2017-06-10T00:55:12.229Z,86.90
2017-06-10T00:57:47.518Z,84.90
2017-06-10T01:00:22.264Z,87.00
2017-06-10T01:02:56.181Z,86.00
2017-06-10T01:05:31.640Z,85.10
2017-06-10T01:08:05.572Z,84.30
2017-06-10T01:10:40.071Z,86.20
2017-06-10T01:13:14.041Z,86.60
2017-06-10T01:15:49.700Z,86.50
2017-06-10T01:18:23.348Z,86.30
2017-06-10T01:20:58.689Z,83.00
2017-06-10T01:23:33.355Z,83.10
2017-06-10T01:26:07.222Z,83.00
2017-06-10T01:28:41.773Z,86.00
2017-06-10T01:31:15.401Z,85.30
2017-06-10T01:33:49.904Z,82.80
2017-06-10T01:36:23.913Z,82.80
2017-06-10T01:38:58.411Z,83.10
2017-06-10T01:41:32.201Z,83.20
2017-06-10T01:44:05.885Z,83.80
2017-06-10T01:46:40.633Z,83.90
2017-06-10T01:49:15.039Z,85.50
2017-06-10T01:51:49.674Z,82.90
2017-06-10T01:54:23.400Z,82.80
2017-06-10T01:56:58.185Z,81.20
2017-06-10T01:59:31.908Z,81.10
2017-06-10T02:02:05.568Z,80.90
2017-06-10T02:04:40.805Z,82.80
2017-06-10T02:07:14.709Z,82.80
2017-06-10T02:09:48.317Z,81.40
2017-06-10T02:12:22.051Z,85.30
2017-06-10T02:14:56.571Z,82.60
2017-06-10T02:17:31.610Z,83.40
2017-06-10T02:20:05.824Z,84.40
2017-06-10T02:22:39.596Z,83.50
2017-06-10T02:25:14.029Z,84.60
2017-06-10T02:27:48.581Z,81.10
2017-06-10T02:30:23.153Z,84.50
2017-06-10T02:32:57.037Z,84.50
2017-06-10T02:35:31.486Z,84.10
2017-06-10T02:38:05.380Z,84.30
2017-06-10T02:40:40.540Z,84.30
2017-06-10T02:43:14.693Z,84.30
2017-06-10T02:45:48.447Z,83.50
2017-06-10T02:48:22.201Z,85.70
2017-06-10T02:50:55.825Z,83.70
2017-06-10T02:53:29.641Z,84.10
2017-06-10T02:56:03.351Z,82.80
2017-06-10T02:58:37.032Z,82.30
2017-06-10T03:01:11.630Z,80.70
2017-06-10T03:03:47.099Z,83.30
2017-06-10T03:06:21.668Z,84.40
2017-06-10T03:08:56.448Z,83.40
2017-06-10T03:11:30.141Z,83.70
2017-06-10T03:14:03.929Z,82.50
2017-06-10T03:16:49.981Z,82.70
2017-06-10T03:19:23.884Z,81.40
2017-06-10T03:21:58.485Z,82.20
2017-06-10T03:24:33.004Z,84.50
2017-06-10T03:27:06.936Z,84.30
2017-06-10T03:29:41.524Z,82.70
2017-06-10T03:32:16.008Z,84.20
2017-06-10T03:34:50.044Z,84.00
2017-06-10T03:37:25.459Z,82.80
2017-06-10T03:39:59.201Z,82.60
2017-06-10T03:42:33.596Z,81.40
2017-06-10T03:45:08.237Z,79.60
2017-06-10T03:47:41.973Z,79.60
2017-06-10T03:50:16.596Z,82.00
2017-06-10T03:52:50.390Z,82.10
2017-06-10T03:55:24.812Z,82.20
2017-06-10T03:57:58.621Z,82.00
2017-06-10T04:00:32.452Z,82.40
2017-06-10T04:03:07.003Z,80.90
2017-06-10T04:05:41.556Z,81.50
2017-06-10T04:08:15.182Z,82.40
2017-06-10T04:10:50.700Z,82.60
2017-06-10T04:13:24.621Z,82.40
2017-06-10T04:15:59.234Z,82.30
2017-06-10T04:18:33.693Z,84.00
2017-06-10T04:21:07.329Z,85.00
2017-06-10T04:23:41.113Z,83.60
2017-06-10T04:26:14.876Z,83.00
2017-06-10T04:28:48.570Z,84.20
2017-06-10T04:31:23.329Z,82.10
2017-06-10T04:33:58.605Z,84.80
2017-06-10T04:36:33.287Z,81.70
2017-06-10T04:39:07.172Z,81.50
2017-06-10T04:41:41.668Z,81.90
2017-06-10T04:44:16.096Z,80.10
2017-06-10T04:46:50.639Z,84.00
2017-06-10T04:49:24.686Z,83.80
2017-06-10T04:51:58.407Z,82.50
2017-06-10T04:54:32.889Z,85.00
2017-06-10T04:57:06.613Z,85.00
2017-06-10T04:59:41.689Z,84.40
2017-06-10T05:02:15.764Z,84.50
2017-06-10T05:04:49.449Z,84.50
2017-06-10T05:07:23.246Z,84.50
2017-06-10T05:09:57.812Z,84.90
2017-06-10T05:12:31.645Z,83.70
2017-06-10T05:15:06.885Z,86.50
2017-06-10T05:17:41.529Z,83.50
2017-06-10T05:20:15.321Z,83.00
2017-06-10T05:22:49.077Z,83.70
2017-06-10T05:25:23.632Z,82.60
2017-06-10T05:27:57.602Z,81.60
2017-06-10T05:30:31.309Z,82.80
2017-06-10T05:33:04.928Z,84.70
2017-06-10T05:35:39.489Z,83.70
2017-06-10T05:38:13.164Z,80.90
2017-06-10T05:40:47.756Z,83.70
2017-06-10T05:43:22.488Z,82.70
2017-06-10T05:45:57.765Z,81.20
2017-06-10T05:48:31.821Z,81.10
2017-06-10T05:51:06.361Z,82.50
2017-06-10T05:53:40.100Z,84.10
2017-06-10T05:56:15.272Z,82.40
2017-06-10T05:58:50.020Z,87.90
2017-06-10T06:01:23.844Z,86.80
2017-06-10T06:03:59.380Z,85.60
2017-06-10T06:06:33.846Z,86.80
2017-06-10T06:09:07.824Z,85.80
2017-06-10T06:11:41.488Z,84.40
2017-06-10T06:14:16.244Z,84.10
2017-06-10T06:16:50.609Z,83.90
2017-06-10T06:19:25.497Z,83.90
2017-06-10T06:21:59.429Z,83.80
2017-06-10T06:24:33.189Z,82.90
2017-06-10T06:27:06.913Z,84.50
2017-06-10T06:29:41.528Z,83.00
2017-06-10T06:32:15.372Z,83.00
2017-06-10T06:34:49.020Z,83.20
2017-06-10T06:37:23.553Z,82.80
2017-06-10T06:39:57.341Z,82.30
2017-06-10T06:42:31.729Z,84.30
2017-06-10T06:45:05.561Z,84.00
2017-06-10T06:47:39.961Z,85.20
2017-06-10T06:50:14.416Z,87.30
2017-06-10T06:52:48.292Z,86.80
2017-06-10T06:55:22.862Z,89.50
2017-06-10T06:57:56.716Z,89.40
2017-06-10T07:00:30.481Z,87.70
2017-06-10T07:03:05.029Z,87.40
2017-06-10T07:05:38.736Z,89.10
2017-06-10T07:08:13.164Z,87.50
2017-06-10T07:10:46.925Z,87.20
2017-06-10T07:13:21.440Z,88.30
2017-06-10T07:15:55.185Z,89.10
2017-06-10T07:18:29.741Z,84.30
2017-06-10T07:21:03.651Z,84.10
2017-06-10T07:23:38.067Z,86.20
2017-06-10T07:26:11.925Z,86.20
2017-06-10T07:28:45.693Z,83.20
2017-06-10T07:31:19.465Z,82.50
2017-06-10T07:33:53.092Z,83.20
2017-06-10T07:36:26.880Z,83.10
2017-06-10T07:39:00.600Z,84.60
2017-06-10T07:41:34.395Z,85.80
2017-06-10T07:44:08.106Z,84.50
2017-06-10T07:46:42.861Z,85.10
2017-06-10T07:49:17.348Z,86.60
2017-06-10T07:51:52.130Z,86.90
2017-06-10T07:54:26.704Z,87.90
2017-06-10T07:57:00.585Z,87.80
2017-06-10T07:59:35.134Z,85.10
2017-06-10T08:02:09.300Z,85.00
2017-06-10T08:04:44.493Z,83.40
2017-06-10T08:07:18.389Z,83.30
2017-06-10T08:09:52.828Z,82.50
2017-06-10T08:12:26.640Z,82.50
2017-06-10T08:15:01.100Z,81.50
2017-06-10T08:17:34.982Z,81.20
2017-06-10T08:20:08.704Z,79.90
2017-06-10T08:22:43.407Z,84.90
2017-06-10T08:25:17.228Z,84.10
2017-06-10T08:27:51.089Z,80.10
2017-06-10T08:30:24.717Z,82.40
2017-06-10T08:32:59.364Z,82.00
2017-06-10T08:35:33.959Z,80.10
2017-06-10T08:38:08.064Z,80.10
2017-06-10T08:40:42.572Z,79.30
2017-06-10T08:43:16.444Z,81.70
2017-06-10T08:45:50.812Z,80.10
2017-06-10T08:48:25.677Z,81.70
2017-06-10T08:50:59.704Z,81.50
2017-06-10T08:53:33.649Z,76.80
2017-06-10T08:56:07.236Z,70.70
2017-06-10T08:58:41.028Z,59.80
2017-06-10T09:01:14.869Z,63.70
2017-06-10T09:03:49.608Z,58.60
2017-06-10T09:06:23.328Z,60.10
2017-06-10T09:08:57.115Z,66.00
2017-06-10T09:11:30.704Z,60.80
2017-06-10T09:14:04.342Z,62.10
2017-06-10T09:16:38.012Z,60.30
2017-06-10T09:19:11.880Z,60.10
2017-06-10T09:21:45.568Z,59.00
2017-06-10T09:24:20.104Z,59.90
2017-06-10T09:26:54.028Z,60.00
2017-06-10T09:29:27.891Z,58.60
2017-06-10T09:32:01.555Z,61.20
2017-06-10T09:34:36.396Z,53.90
2017-06-10T09:37:10.009Z,54.90
2017-06-10T09:39:43.940Z,54.10
2017-06-10T09:42:18.433Z,52.70
2017-06-10T09:44:52.599Z,52.50
2017-06-10T09:47:27.888Z,54.00
2017-06-10T09:50:01.798Z,54.00
2017-06-10T09:52:35.437Z,55.10
2017-06-10T09:55:09.186Z,53.30
2017-06-10T09:57:43.037Z,51.50
2017-06-10T10:00:16.936Z,50.30
2017-06-10T10:02:50.717Z,47.10
2017-06-10T10:05:25.527Z,48.30
2017-06-10T10:07:59.304Z,50.10
2017-06-10T10:10:33.713Z,49.20
2017-06-10T10:13:07.680Z,49.30
2017-06-10T10:15:41.565Z,52.30
2017-06-10T10:18:15.308Z,56.60
2017-06-10T10:20:50.077Z,49.90
2017-06-10T10:23:24.064Z,50.00
2017-06-10T10:25:58.189Z,49.00
2017-06-10T10:28:33.493Z,46.50
2017-06-10T10:31:07.580Z,46.40
2017-06-10T10:33:41.237Z,46.00
2017-06-10T10:36:15.089Z,48.90
2017-06-10T10:38:49.637Z,47.60
2017-06-10T10:41:23.507Z,47.40
2017-06-10T10:43:57.196Z,47.20
2017-06-10T10:46:30.913Z,48.00
2017-06-10T10:49:04.701Z,46.60
2017-06-10T10:51:38.435Z,45.20
2017-06-10T10:54:12.057Z,45.40
2017-06-10T10:56:45.880Z,48.20
2017-06-10T10:59:19.491Z,48.10
2017-06-10T11:01:54.251Z,49.30
2017-06-10T11:04:28.073Z,49.00
2017-06-10T11:07:01.924Z,47.60
2017-06-10T11:09:35.476Z,44.20
2017-06-10T11:12:09.221Z,44.30
2017-06-10T11:14:43.211Z,43.40
2017-06-10T11:17:17.972Z,46.80
2017-06-10T11:19:51.788Z,46.80
2017-06-10T11:22:26.322Z,46.50
2017-06-10T11:25:01.009Z,43.30
2017-06-10T11:27:35.066Z,43.20
2017-06-10T11:30:08.776Z,46.30
2017-06-10T11:32:42.600Z,45.50
2017-06-10T11:35:17.105Z,41.70
2017-06-10T11:37:51.040Z,41.80
2017-06-10T11:40:24.820Z,42.40
2017-06-10T11:42:58.476Z,41.70
2017-06-10T11:45:32.889Z,41.30
2017-06-10T11:48:06.866Z,41.30
2017-06-10T11:50:41.317Z,41.60
2017-06-10T11:53:15.329Z,41.60
2017-06-10T11:55:48.917Z,43.30
2017-06-10T11:58:22.836Z,43.90
2017-06-10T12:00:56.420Z,42.60
2017-06-10T12:03:30.312Z,43.40
2017-06-10T12:06:04.865Z,42.40
2017-06-10T12:08:38.919Z,42.40
2017-06-10T12:11:12.739Z,41.20
2017-06-10T12:13:47.338Z,40.50
2017-06-10T12:16:21.265Z,40.60
2017-06-10T12:18:54.981Z,40.50
2017-06-10T12:21:29.555Z,40.80
2017-06-10T12:24:04.325Z,42.00
2017-06-10T12:26:38.129Z,42.10
2017-06-10T12:29:12.748Z,40.30
2017-06-10T12:31:46.556Z,40.20
2017-06-10T12:34:21.311Z,41.80
2017-06-10T12:36:55.022Z,39.90
2017-06-10T12:39:29.025Z,41.20
2017-06-10T12:42:03.596Z,41.00
2017-06-10T12:44:38.060Z,40.20
2017-06-10T12:47:11.976Z,40.10
2017-06-10T12:49:45.695Z,40.00
2017-06-10T12:52:19.308Z,39.80
2017-06-10T12:54:53.863Z,39.80
2017-06-10T12:57:27.791Z,39.80
2017-06-10T13:00:03.145Z,39.50
2017-06-10T13:02:37.020Z,39.60
2017-06-10T13:05:11.973Z,39.80
2017-06-10T13:07:45.727Z,39.80
2017-06-10T13:10:19.626Z,41.20
2017-06-10T13:12:53.284Z,38.40
2017-06-10T13:15:27.201Z,38.20
2017-06-10T13:18:01.712Z,38.30
2017-06-10T13:20:36.276Z,38.90
2017-06-10T13:23:09.896Z,40.30
2017-06-10T13:25:44.672Z,38.20
2017-06-10T13:28:19.152Z,35.90
2017-06-10T13:30:52.897Z,35.70
2017-06-10T13:33:27.272Z,34.70
2017-06-10T13:36:02.132Z,34.60
2017-06-10T13:38:35.736Z,36.00
2017-06-10T13:41:10.256Z,39.80
2017-06-10T13:43:44.049Z,39.70
2017-06-10T13:46:17.732Z,35.10
2017-06-10T13:48:52.282Z,34.20
2017-06-10T13:51:26.037Z,38.80
2017-06-10T13:53:59.725Z,33.50
2017-06-10T13:56:34.235Z,32.50
2017-06-10T13:59:08.813Z,33.30
2017-06-10T14:01:42.825Z,33.20
2017-06-10T14:04:17.381Z,32.30
2017-06-10T14:06:51.305Z,35.00
2017-06-10T14:09:24.932Z,35.40
2017-06-10T14:11:58.756Z,37.00
2017-06-10T14:14:32.341Z,33.30
2017-06-10T14:17:06.268Z,30.30
2017-06-10T14:19:40.824Z,30.00
2017-06-10T14:22:15.524Z,31.00
2017-06-10T14:24:49.135Z,31.00
2017-06-10T14:27:22.952Z,31.20
2017-06-10T14:29:57.479Z,34.80
2017-06-10T14:32:31.348Z,31.60
2017-06-10T14:35:06.604Z,33.00
2017-06-10T14:37:40.763Z,32.90
2017-06-10T14:40:15.274Z,34.50
2017-06-10T14:42:49.305Z,33.20
2017-06-10T14:45:22.980Z,37.80
2017-06-10T14:47:56.793Z,32.90
2017-06-10T14:50:30.669Z,30.90
2017-06-10T14:53:04.436Z,33.40
2017-06-10T14:55:38.069Z,35.90
2017-06-10T14:58:12.059Z,33.00
2017-06-10T15:00:46.585Z,32.40
2017-06-10T15:03:21.217Z,32.40
2017-06-10T15:05:55.134Z,32.30
2017-06-10T15:08:29.866Z,32.70
2017-06-10T15:11:03.770Z,32.10
2017-06-10T15:13:37.649Z,33.70
2017-06-10T15:16:11.373Z,31.00
2017-06-10T15:18:45.246Z,31.00
2017-06-10T15:21:19.772Z,31.10
2017-06-10T15:23:54.019Z,34.30
2017-06-10T15:26:29.220Z,28.90
2017-06-10T15:29:03.356Z,28.80
2017-06-10T15:31:36.970Z,28.20
2017-06-10T15:34:12.824Z,27.40
2017-06-10T15:36:47.322Z,28.60
2017-06-10T15:39:22.391Z,28.80
2017-06-10T15:41:56.252Z,28.70
2017-06-10T15:44:30.830Z,27.60
2017-06-10T15:47:04.760Z,27.50
2017-06-10T15:49:39.477Z,26.60
2017-06-10T15:52:13.275Z,26.60
2017-06-10T15:54:48.080Z,26.20
2017-06-10T15:57:22.020Z,26.20
2017-06-10T15:59:56.257Z,25.70
2017-06-10T16:02:30.436Z,25.70
2017-06-10T16:05:06.141Z,26.40
2017-06-10T16:07:39.891Z,26.30
2017-06-10T16:10:14.489Z,26.70
2017-06-10T16:12:48.320Z,26.90
2017-06-10T16:15:23.037Z,24.40
2017-06-10T16:17:57.048Z,24.20
2017-06-10T16:20:30.923Z,23.70
2017-06-10T16:23:05.352Z,25.50
2017-06-10T16:25:40.141Z,26.30
2017-06-10T16:28:13.852Z,26.30
2017-06-10T16:30:48.545Z,25.80
2017-06-10T16:33:22.454Z,25.80
2017-06-10T16:35:59.117Z,24.80
2017-06-10T16:38:32.851Z,24.60
2017-06-10T16:41:06.656Z,23.40
2017-06-10T16:43:40.338Z,29.10
2017-06-10T16:46:15.081Z,23.70
2017-06-10T16:48:48.981Z,23.90
2017-06-10T16:51:22.951Z,24.60
2017-06-10T16:53:57.500Z,25.10
2017-06-10T16:56:32.029Z,24.50
2017-06-10T16:59:05.939Z,23.90
2017-06-10T17:01:39.632Z,26.90
2017-06-10T17:04:13.440Z,25.80
2017-06-10T17:06:48.164Z,26.30
2017-06-10T17:09:21.877Z,27.80
2017-06-10T17:11:55.778Z,28.10
2017-06-10T17:14:30.289Z,28.50
2017-06-10T17:17:05.044Z,29.80
2017-06-10T17:19:38.845Z,29.20
2017-06-10T17:22:12.684Z,29.90
2017-06-10T17:24:46.396Z,30.10
2017-06-10T17:27:20.208Z,30.10
2017-06-10T17:29:53.806Z,30.60
2017-06-10T17:32:27.617Z,32.20
2017-06-10T17:35:01.216Z,31.60
2017-06-10T17:37:35.036Z,31.70
2017-06-10T17:40:08.836Z,31.60
2017-06-10T17:42:42.693Z,31.90
2017-06-10T17:45:16.334Z,33.40
2017-06-10T17:47:50.037Z,35.20
2017-06-10T17:50:23.906Z,33.10
2017-06-10T17:52:58.428Z,35.20
2017-06-10T17:55:32.364Z,35.10
2017-06-10T17:58:06.090Z,32.40
2017-06-10T18:00:39.692Z,29.70
2017-06-10T18:03:14.544Z,31.80
2017-06-10T18:05:48.304Z,31.70
2017-06-10T18:08:22.157Z,31.80
2017-06-10T18:10:55.784Z,33.80
2017-06-10T18:13:29.629Z,33.00
2017-06-10T18:16:03.422Z,34.50
2017-06-10T18:18:37.979Z,31.80
2017-06-10T18:21:11.624Z,32.00
2017-06-10T18:23:49.136Z,35.10
2017-06-10T18:26:23.792Z,34.40
2017-06-10T18:28:57.793Z,34.40
2017-06-10T18:31:31.932Z,33.80
2017-06-10T18:34:07.557Z,35.50
2017-06-10T18:36:41.311Z,34.80
2017-06-10T18:39:15.251Z,35.40
2017-06-10T18:41:49.025Z,35.90
2017-06-10T18:44:22.968Z,39.20
2017-06-10T18:46:56.552Z,41.40
2017-06-10T18:49:31.107Z,38.00
2017-06-10T18:52:04.940Z,39.30
2017-06-10T18:54:38.908Z,41.00
2017-06-10T18:57:12.553Z,39.60
2017-06-10T18:59:46.484Z,39.30
2017-06-10T19:02:21.084Z,40.50
2017-06-10T19:04:56.085Z,44.30
2017-06-10T19:07:30.520Z,44.00
2017-06-10T19:10:05.509Z,45.50
2017-06-10T19:12:39.413Z,45.50
2017-06-10T19:15:13.277Z,45.10
2017-06-10T19:17:47.020Z,47.80
2017-06-10T19:20:21.752Z,46.20
2017-06-10T19:22:55.500Z,46.50
2017-06-10T19:25:29.467Z,47.20
2017-06-10T19:28:04.773Z,50.20
2017-06-10T19:30:39.632Z,48.10
2017-06-10T19:33:13.476Z,48.20
2017-06-10T19:35:49.437Z,50.60
2017-06-10T19:38:23.097Z,50.40
2017-06-10T19:40:57.808Z,48.80
2017-06-10T19:43:31.728Z,48.20
2017-06-10T19:46:05.670Z,50.40
2017-06-10T19:48:40.129Z,50.30
2017-06-10T19:51:15.302Z,50.90
2017-06-10T19:53:49.988Z,53.40
2017-06-10T19:56:24.004Z,52.90
2017-06-10T19:58:57.677Z,51.30
2017-06-10T20:01:31.596Z,50.00
2017-06-10T20:04:06.056Z,53.70
2017-06-10T20:06:41.960Z,52.00
2017-06-10T20:09:17.229Z,52.70
2017-06-10T20:11:51.532Z,52.60
2017-06-10T20:14:26.788Z,54.10
2017-06-10T20:17:01.159Z,54.00
2017-06-10T20:19:36.344Z,55.80
2017-06-10T20:22:11.325Z,56.10
2017-06-10T20:24:46.001Z,56.60
2017-06-10T20:27:20.029Z,56.70
2017-06-10T20:29:54.537Z,56.60
2017-06-10T20:32:28.724Z,56.00
2017-06-10T20:35:02.428Z,57.70
2017-06-10T20:37:37.448Z,56.00
2017-06-10T20:40:11.133Z,56.20
2017-06-10T20:42:45.088Z,58.00
2017-06-10T20:45:18.715Z,57.40
2017-06-10T20:47:52.619Z,59.10
2017-06-10T20:50:27.037Z,57.50
2017-06-10T20:53:01.116Z,57.40
2017-06-10T20:55:34.701Z,57.80
2017-06-10T20:58:08.580Z,58.20
2017-06-10T21:00:42.311Z,58.50
2017-06-10T21:03:16.986Z,59.10
2017-06-10T21:05:50.764Z,59.10
2017-06-10T21:08:24.745Z,59.00
2017-06-10T21:10:58.345Z,58.00
2017-06-10T21:13:33.049Z,59.20
2017-06-10T21:16:06.780Z,59.10
2017-06-10T21:18:40.760Z,58.40
2017-06-10T21:21:14.356Z,58.60
2017-06-10T21:23:48.120Z,59.20
2017-06-10T21:26:21.893Z,58.80
2017-06-10T21:28:55.904Z,59.40
2017-06-10T21:31:30.396Z,60.10
2017-06-10T21:34:05.420Z,59.60
2017-06-10T21:36:39.100Z,60.10
2017-06-10T21:39:13.074Z,60.10
2017-06-10T21:41:48.376Z,60.10
2017-06-10T21:44:22.522Z,60.00
2017-06-10T21:46:57.834Z,61.40
2017-06-10T21:49:32.393Z,61.60
2017-06-10T21:52:07.391Z,60.00
2017-06-10T21:54:41.345Z,59.90
2017-06-10T21:57:15.005Z,59.90
2017-06-10T21:59:48.898Z,59.30
2017-06-10T22:02:22.665Z,62.30
2017-06-10T22:04:57.300Z,59.60
2017-06-10T22:07:31.860Z,64.80
2017-06-10T22:10:06.045Z,64.30
2017-06-10T22:12:39.752Z,62.60
2017-06-10T22:15:13.729Z,63.30
2017-06-10T22:17:48.232Z,64.10
2017-06-10T22:20:22.959Z,64.30
2017-06-10T22:22:56.792Z,64.20
2017-06-10T22:25:30.484Z,62.20
2017-06-10T22:28:04.204Z,62.20
2017-06-10T22:30:38.736Z,62.00
2017-06-10T22:33:12.500Z,61.80
2017-06-10T22:35:47.929Z,64.00
2017-06-10T22:38:21.656Z,61.80
2017-06-10T22:40:55.618Z,64.20
2017-06-10T22:43:29.318Z,64.40
2017-06-10T22:46:03.233Z,64.80
2017-06-10T22:48:37.006Z,63.80
2017-06-10T22:51:11.525Z,63.80
2017-06-10T22:53:45.638Z,63.50
2017-06-10T22:56:19.561Z,62.70
2017-06-10T22:58:53.365Z,63.70
2017-06-10T23:01:27.113Z,63.50
2017-06-10T23:04:00.841Z,64.30
2017-06-10T23:06:35.637Z,63.80
2017-06-10T23:09:10.165Z,62.80
2017-06-10T23:11:44.261Z,62.70
2017-06-10T23:14:19.521Z,63.50
2017-06-10T23:16:53.520Z,63.40
2017-06-10T23:19:27.961Z,63.70
2017-06-10T23:22:01.937Z,63.60
2017-06-10T23:24:35.821Z,64.80
2017-06-10T23:27:10.553Z,65.20
2017-06-10T23:29:45.217Z,66.10
2017-06-10T23:32:19.300Z,65.40
2017-06-10T23:34:53.649Z,65.70
2017-06-10T23:37:28.849Z,65.60
2017-06-10T23:40:02.487Z,67.00
2017-06-10T23:42:36.362Z,66.70
2017-06-10T23:45:09.968Z,66.40
2017-06-10T23:47:44.365Z,68.70
2017-06-10T23:50:19.049Z,67.80
2017-06-10T23:52:53.044Z,67.70
2017-06-10T23:55:26.661Z,66.60
2017-06-10T23:58:01.132Z,66.60
